createdAt,value
2017-12-24T00:00:34.268Z,91.31
2017-12-24T00:01:14.830Z,91.13
2017-12-24T00:01:55.421Z,91.79
2017-12-24T00:02:35.927Z,91.98
2017-12-24T00:03:16.496Z,91.69
2017-12-24T00:03:57.046Z,91.88
2017-12-24T00:04:37.554Z,92.17
2017-12-24T00:05:18.105Z,92.84
2017-12-24T00:05:58.645Z,91.88
2017-12-24T00:06:39.175Z,92.46
2017-12-24T00:07:19.742Z,92.46
2017-12-24T00:08:00.224Z,91.98
2017-12-24T00:08:40.801Z,91.88
2017-12-24T00:09:21.983Z,91.79
2017-12-24T00:10:02.554Z,92.17
2017-12-24T00:10:43.091Z,91.79
2017-12-24T00:11:23.603Z,91.98
2017-12-24T00:12:04.161Z,92.08
2017-12-24T00:12:44.737Z,91.98
2017-12-24T00:13:25.294Z,91.6
2017-12-24T00:14:05.841Z,91.5
2017-12-24T00:14:46.373Z,91.69
2017-12-24T00:15:26.920Z,91.6
2017-12-24T00:16:07.472Z,91.79
2017-12-24T00:16:48.022Z,91.79
2017-12-24T00:17:28.587Z,91.79
2017-12-24T00:18:09.148Z,91.41
2017-12-24T00:18:49.667Z,91.22
2017-12-24T00:19:30.215Z,91.31
2017-12-24T00:20:10.741Z,91.31
2017-12-24T00:20:51.267Z,90.64
2017-12-24T00:21:31.817Z,90.84
2017-12-24T00:22:12.395Z,90.64
2017-12-24T00:22:52.896Z,90.84
2017-12-24T00:23:33.414Z,91.6
2017-12-24T00:24:13.990Z,91.5
2017-12-24T00:24:54.520Z,91.88
2017-12-24T00:25:35.100Z,91.41
2017-12-24T00:26:15.711Z,91.41
2017-12-24T00:26:56.323Z,91.13
2017-12-24T00:27:36.880Z,91.41
2017-12-24T00:28:17.397Z,91.22
2017-12-24T00:28:57.957Z,91.22
2017-12-24T00:29:38.543Z,91.31
2017-12-24T00:30:19.072Z,91.22
2017-12-24T00:30:59.606Z,91.69
2017-12-24T00:31:40.153Z,91.31
2017-12-24T00:32:20.679Z,91.41
2017-12-24T00:33:01.246Z,91.22
2017-12-24T00:33:41.877Z,91.5
2017-12-24T00:34:22.432Z,91.69
2017-12-24T00:35:02.970Z,92.08
2017-12-24T00:35:43.515Z,91.79
2017-12-24T00:36:24.081Z,91.31
2017-12-24T00:37:04.627Z,91.31
2017-12-24T00:37:45.158Z,91.22
2017-12-24T00:38:25.714Z,91.13
2017-12-24T00:39:06.231Z,91.41
2017-12-24T00:39:46.790Z,90.84
2017-12-24T00:40:27.321Z,90.84
2017-12-24T00:41:07.863Z,90.93
2017-12-24T00:41:48.414Z,90.64
2017-12-24T00:42:28.940Z,91.03
2017-12-24T00:43:09.504Z,91.22
2017-12-24T00:43:50.056Z,90.84
2017-12-24T00:44:30.598Z,91.5
2017-12-24T00:45:11.134Z,91.41
2017-12-24T00:45:51.686Z,91.13
2017-12-24T00:46:32.268Z,91.13
2017-12-24T00:47:12.799Z,91.69
2017-12-24T00:47:53.337Z,91.69
2017-12-24T00:48:33.879Z,91.6
2017-12-24T00:49:14.421Z,91.6
2017-12-24T00:49:54.963Z,91.79
2017-12-24T00:50:35.533Z,91.31
2017-12-24T00:51:16.097Z,91.22
2017-12-24T00:51:56.649Z,91.31
2017-12-24T00:52:37.194Z,91.22
2017-12-24T00:53:17.790Z,90.64
2017-12-24T00:53:58.260Z,91.03
2017-12-24T00:54:38.845Z,90.74
2017-12-24T00:55:19.371Z,90.45
2017-12-24T00:55:59.876Z,90.55
2017-12-24T00:56:40.425Z,90.74
2017-12-24T00:57:20.938Z,90.74
2017-12-24T00:58:01.504Z,90.08
2017-12-24T00:58:42.051Z,89.98
2017-12-24T00:59:22.608Z,90.45
2017-12-24T01:00:03.175Z,90.84
2017-12-24T01:00:43.717Z,91.6
2017-12-24T01:01:24.251Z,91.5
2017-12-24T01:02:04.789Z,90.64
2017-12-24T01:02:45.354Z,90.93
2017-12-24T01:03:25.890Z,90.74
2017-12-24T01:04:06.427Z,90.64
2017-12-24T01:04:46.989Z,90.84
2017-12-24T01:05:27.521Z,90.64
2017-12-24T01:06:08.094Z,90.45
2017-12-24T01:06:48.650Z,90.74
2017-12-24T01:07:29.215Z,90.45
2017-12-24T01:08:09.771Z,90.93
2017-12-24T01:08:50.340Z,90.84
2017-12-24T01:09:30.864Z,90.93
2017-12-24T01:10:11.417Z,90.26
2017-12-24T01:10:51.966Z,89.79
2017-12-24T01:11:32.508Z,89.69
2017-12-24T01:12:13.064Z,90.45
2017-12-24T01:12:53.597Z,90.26
2017-12-24T01:13:34.148Z,90.26
2017-12-24T01:14:14.698Z,90.64
2017-12-24T01:14:55.249Z,90.84
2017-12-24T01:15:35.811Z,90.84
2017-12-24T01:16:16.337Z,90.45
2017-12-24T01:16:56.861Z,91.03
2017-12-24T01:17:37.392Z,90.84
2017-12-24T01:18:17.922Z,90.93
2017-12-24T01:18:58.463Z,90.17
2017-12-24T01:19:38.998Z,90.36
2017-12-24T01:20:19.561Z,90.84
2017-12-24T01:21:00.083Z,90.74
2017-12-24T01:21:40.610Z,90.45
2017-12-24T01:22:21.155Z,90.08
2017-12-24T01:23:01.720Z,90.17
2017-12-24T01:23:42.252Z,90.17
2017-12-24T01:24:22.825Z,89.6
2017-12-24T01:25:03.333Z,90.45
2017-12-24T01:25:43.894Z,90.45
2017-12-24T01:26:24.442Z,89.79
2017-12-24T01:27:05.001Z,89.79
2017-12-24T01:27:45.540Z,89.89
2017-12-24T01:28:26.087Z,89.98
2017-12-24T01:29:06.639Z,89.89
2017-12-24T01:29:47.217Z,90.26
2017-12-24T01:30:27.744Z,90.55
2017-12-24T01:31:08.275Z,90.17
2017-12-24T01:31:48.813Z,90.45
2017-12-24T01:32:29.328Z,90.74
2017-12-24T01:33:09.868Z,90.45
2017-12-24T01:33:50.393Z,90.45
2017-12-24T01:34:30.934Z,90.36
2017-12-24T01:35:11.470Z,89.89
2017-12-24T01:35:52.028Z,89.98
2017-12-24T01:36:32.562Z,89.79
2017-12-24T01:37:13.103Z,89.69
2017-12-24T01:37:53.665Z,89.6
2017-12-24T01:38:34.221Z,89.5
2017-12-24T01:39:14.761Z,89.5
2017-12-24T01:39:55.277Z,89.5
2017-12-24T01:40:35.836Z,89.79
2017-12-24T01:41:16.390Z,89.89
2017-12-24T01:41:56.937Z,89.69
2017-12-24T01:42:37.489Z,89.5
2017-12-24T01:43:18.021Z,89.69
2017-12-24T01:43:58.545Z,89.98
2017-12-24T01:44:39.134Z,90.08
2017-12-24T01:45:19.696Z,89.6
2017-12-24T01:46:00.249Z,89.98
2017-12-24T01:46:40.818Z,89.98
2017-12-24T01:47:21.341Z,89.69
2017-12-24T01:48:01.911Z,89.98
2017-12-24T01:48:42.424Z,89.79
2017-12-24T01:49:22.982Z,89.69
2017-12-24T01:50:03.524Z,89.55
2017-12-24T01:50:44.083Z,90.22
2017-12-24T01:51:24.611Z,89.84
2017-12-24T01:52:05.185Z,90.64
2017-12-24T01:52:45.691Z,90.17
2017-12-24T01:53:26.220Z,89.79
2017-12-24T01:54:07.574Z,89.55
2017-12-24T01:54:47.389Z,89.75
2017-12-24T01:55:27.949Z,90.03
2017-12-24T01:56:08.466Z,89.75
2017-12-24T01:56:48.987Z,89.65
2017-12-24T01:57:29.541Z,89.98
2017-12-24T01:58:10.095Z,89.75
2017-12-24T01:58:50.638Z,89.79
2017-12-24T01:59:31.209Z,89.65
2017-12-24T02:00:11.751Z,89.75
2017-12-24T02:00:52.290Z,89.65
2017-12-24T02:01:32.857Z,89.46
2017-12-24T02:02:13.393Z,89.75
2017-12-24T02:02:53.939Z,89.65
2017-12-24T02:03:34.502Z,89.89
2017-12-24T02:04:15.033Z,89.46
2017-12-24T02:04:55.599Z,89.36
2017-12-24T02:05:36.155Z,89.94
2017-12-24T02:06:16.718Z,90.03
2017-12-24T02:06:57.252Z,89.84
2017-12-24T02:07:37.807Z,89.75
2017-12-24T02:08:18.336Z,89.94
2017-12-24T02:08:58.894Z,89.65
2017-12-24T02:09:39.438Z,89.65
2017-12-24T02:10:20.002Z,89.36
2017-12-24T02:11:00.571Z,90.22
2017-12-24T02:11:41.116Z,90.41
2017-12-24T02:12:21.716Z,90.03
2017-12-24T02:13:02.247Z,89.65
2017-12-24T02:13:42.774Z,89.84
2017-12-24T02:14:23.324Z,89.84
2017-12-24T02:15:03.912Z,89.75
2017-12-24T02:15:44.424Z,90.41
2017-12-24T02:16:24.965Z,90.22
2017-12-24T02:17:05.509Z,89.75
2017-12-24T02:17:46.041Z,90.03
2017-12-24T02:18:26.600Z,89.55
2017-12-24T02:19:07.150Z,89.65
2017-12-24T02:19:47.672Z,89.65
2017-12-24T02:20:28.247Z,89.65
2017-12-24T02:21:08.757Z,89.65
2017-12-24T02:21:49.274Z,89.26
2017-12-24T02:22:29.827Z,89.26
2017-12-24T02:23:10.348Z,88.98
2017-12-24T02:23:50.885Z,89.26
2017-12-24T02:24:31.449Z,89.65
2017-12-24T02:25:12.006Z,89.17
2017-12-24T02:25:52.563Z,89.65
2017-12-24T02:26:33.106Z,89.65
2017-12-24T02:27:13.639Z,89.94
2017-12-24T02:27:54.191Z,89.94
2017-12-24T02:28:34.683Z,89.46
2017-12-24T02:29:15.223Z,89.84
2017-12-24T02:29:55.772Z,89.65
2017-12-24T02:30:36.297Z,89.84
2017-12-24T02:31:16.842Z,89.07
2017-12-24T02:31:57.373Z,89.75
2017-12-24T02:32:37.883Z,88.98
2017-12-24T02:33:18.453Z,89.26
2017-12-24T02:33:59.022Z,88.98
2017-12-24T02:34:39.553Z,89.26
2017-12-24T02:35:20.102Z,88.89
2017-12-24T02:36:00.667Z,89.17
2017-12-24T02:36:41.217Z,89.17
2017-12-24T02:37:21.768Z,89.26
2017-12-24T02:38:02.296Z,89.17
2017-12-24T02:38:42.921Z,89.07
2017-12-24T02:39:23.467Z,89.07
2017-12-24T02:40:04.000Z,89.17
2017-12-24T02:40:44.545Z,89.31
2017-12-24T02:41:25.105Z,88.45
2017-12-24T02:42:05.665Z,88.84
2017-12-24T02:42:46.200Z,88.7
2017-12-24T02:43:26.741Z,88.89
2017-12-24T02:44:07.290Z,88.84
2017-12-24T02:44:47.861Z,88.55
2017-12-24T02:45:28.361Z,88.31
2017-12-24T02:46:08.896Z,89.07
2017-12-24T02:46:49.440Z,88.41
2017-12-24T02:47:29.973Z,88.74
2017-12-24T02:48:10.540Z,88.74
2017-12-24T02:48:51.083Z,88.74
2017-12-24T02:49:31.606Z,88.17
2017-12-24T02:50:12.191Z,88.93
2017-12-24T02:50:52.749Z,88.36
2017-12-24T02:51:33.296Z,88.36
2017-12-24T02:52:13.845Z,88.31
2017-12-24T02:52:54.388Z,88.12
2017-12-24T02:53:34.910Z,88.41
2017-12-24T02:54:15.458Z,88.98
2017-12-24T02:54:56.011Z,88.79
2017-12-24T02:55:36.573Z,89.26
2017-12-24T02:56:17.114Z,88.51
2017-12-24T02:56:57.658Z,88.7
2017-12-24T02:57:38.221Z,88.79
2017-12-24T02:58:18.769Z,88.89
2017-12-24T02:58:59.299Z,88.55
2017-12-24T02:59:39.883Z,88.41
2017-12-24T03:00:20.398Z,88.22
2017-12-24T03:01:00.933Z,88.26
2017-12-24T03:01:41.466Z,88.26
2017-12-24T03:02:22.106Z,88.36
2017-12-24T03:03:02.649Z,88.12
2017-12-24T03:03:43.209Z,88.31
2017-12-24T03:04:23.742Z,88.41
2017-12-24T03:05:04.298Z,88.41
2017-12-24T03:05:44.825Z,88.17
2017-12-24T03:06:25.405Z,87.98
2017-12-24T03:07:05.949Z,88.07
2017-12-24T03:07:46.484Z,88.07
2017-12-24T03:08:27.056Z,88.22
2017-12-24T03:09:07.591Z,87.93
2017-12-24T03:09:48.133Z,88.31
2017-12-24T03:10:28.676Z,88.12
2017-12-24T03:11:09.216Z,88.6
2017-12-24T03:11:50.074Z,88.79
2017-12-24T03:12:30.608Z,88.41
2017-12-24T03:13:11.140Z,88.7
2017-12-24T03:13:51.679Z,88.12
2017-12-24T03:14:32.226Z,88.79
2017-12-24T03:15:12.762Z,88.7
2017-12-24T03:15:53.300Z,88.64
2017-12-24T03:16:33.842Z,88.64
2017-12-24T03:17:14.412Z,88.45
2017-12-24T03:17:54.920Z,87.93
2017-12-24T03:18:35.514Z,88.12
2017-12-24T03:19:16.050Z,88.03
2017-12-24T03:19:56.645Z,88.6
2017-12-24T03:20:37.157Z,88.51
2017-12-24T03:21:17.716Z,88.31
2017-12-24T03:21:58.239Z,88.7
2017-12-24T03:22:38.770Z,88.7
2017-12-24T03:23:19.305Z,88.51
2017-12-24T03:23:59.852Z,88.98
2017-12-24T03:24:40.424Z,88.89
2017-12-24T03:25:20.925Z,88.89
2017-12-24T03:26:01.505Z,88.89
2017-12-24T03:26:42.022Z,88.7
2017-12-24T03:27:22.545Z,88.7
2017-12-24T03:28:03.063Z,88.6
2017-12-24T03:28:43.593Z,88.6
2017-12-24T03:29:24.172Z,88.98
2017-12-24T03:30:04.744Z,88.79
2017-12-24T03:30:45.265Z,89.26
2017-12-24T03:31:25.814Z,89.26
2017-12-24T03:32:06.366Z,89.26
2017-12-24T03:32:46.939Z,89.26
2017-12-24T03:33:27.456Z,89.26
2017-12-24T03:34:07.990Z,89.07
2017-12-24T03:34:48.544Z,89.07
2017-12-24T03:35:29.087Z,89.17
2017-12-24T03:36:09.645Z,89.26
2017-12-24T03:36:50.213Z,89.26
2017-12-24T03:37:30.725Z,88.98
2017-12-24T03:38:11.267Z,89.07
2017-12-24T03:38:51.807Z,88.89
2017-12-24T03:39:32.367Z,89.26
2017-12-24T03:40:12.915Z,89.07
2017-12-24T03:40:53.442Z,88.7
2017-12-24T03:41:33.988Z,88.89
2017-12-24T03:42:14.516Z,88.89
2017-12-24T03:42:55.071Z,88.98
2017-12-24T03:43:35.621Z,89.17
2017-12-24T03:44:16.208Z,89.17
2017-12-24T03:44:56.748Z,88.89
2017-12-24T03:45:37.311Z,89.46
2017-12-24T03:46:17.879Z,89.26
2017-12-24T03:46:58.428Z,89.46
2017-12-24T03:47:38.969Z,89.07
2017-12-24T03:48:19.520Z,88.89
2017-12-24T03:49:00.060Z,89.84
2017-12-24T03:49:40.603Z,89.26
2017-12-24T03:50:21.175Z,89.26
2017-12-24T03:51:01.719Z,89.07
2017-12-24T03:51:42.230Z,89.65
2017-12-24T03:52:22.773Z,89.65
2017-12-24T03:53:03.293Z,89.84
2017-12-24T03:53:43.859Z,89.4
2017-12-24T03:54:24.443Z,89.17
2017-12-24T03:55:04.980Z,88.93
2017-12-24T03:55:45.526Z,89.31
2017-12-24T03:56:26.068Z,89.07
2017-12-24T03:57:06.616Z,89.22
2017-12-24T03:57:47.156Z,88.93
2017-12-24T03:58:27.806Z,89.17
2017-12-24T03:59:08.299Z,89.26
2017-12-24T03:59:48.808Z,89.07
2017-12-24T04:00:29.381Z,89.07
2017-12-24T04:01:09.888Z,89.07
2017-12-24T04:01:50.451Z,89.03
2017-12-24T04:02:30.995Z,89.26
2017-12-24T04:03:11.579Z,89.17
2017-12-24T04:03:53.003Z,89.55
2017-12-24T04:04:33.570Z,89.65
2017-12-24T04:05:14.113Z,89.94
2017-12-24T04:05:54.666Z,89.46
2017-12-24T04:06:35.190Z,89.55
2017-12-24T04:07:15.740Z,90.12
2017-12-24T04:07:56.298Z,89.46
2017-12-24T04:08:36.839Z,89.94
2017-12-24T04:09:17.381Z,89.84
2017-12-24T04:09:57.938Z,90.41
2017-12-24T04:10:39.107Z,89.84
2017-12-24T04:11:19.010Z,89.75
2017-12-24T04:11:59.561Z,90.22
2017-12-24T04:12:40.117Z,90.03
2017-12-24T04:13:20.670Z,89.84
2017-12-24T04:14:01.252Z,89.94
2017-12-24T04:14:41.761Z,89.94
2017-12-24T04:15:22.304Z,90.03
2017-12-24T04:16:02.811Z,90.03
2017-12-24T04:16:43.361Z,89.75
2017-12-24T04:17:23.864Z,89.94
2017-12-24T04:18:04.383Z,89.84
2017-12-24T04:18:44.910Z,89.65
2017-12-24T04:19:25.460Z,89.65
2017-12-24T04:20:06.025Z,89.55
2017-12-24T04:20:46.574Z,89.65
2017-12-24T04:21:27.093Z,89.94
2017-12-24T04:22:07.653Z,89.75
2017-12-24T04:22:48.189Z,89.65
2017-12-24T04:23:28.732Z,90.03
2017-12-24T04:24:09.275Z,90.41
2017-12-24T04:24:49.835Z,90.41
2017-12-24T04:25:30.387Z,90.22
2017-12-24T04:26:10.934Z,89.55
2017-12-24T04:26:51.480Z,89.84
2017-12-24T04:27:32.025Z,89.65
2017-12-24T04:28:12.581Z,89.84
2017-12-24T04:28:53.170Z,90.41
2017-12-24T04:29:33.725Z,90.7
2017-12-24T04:30:14.177Z,90.5
2017-12-24T04:30:54.730Z,90.41
2017-12-24T04:31:35.293Z,90.98
2017-12-24T04:32:15.825Z,90.98
2017-12-24T04:32:56.384Z,90.6
2017-12-24T04:33:36.879Z,91.13
2017-12-24T04:34:17.420Z,91.94
2017-12-24T04:34:57.951Z,91.6
2017-12-24T04:35:38.508Z,91.65
2017-12-24T04:36:19.029Z,91.36
2017-12-24T04:37:00.120Z,91.36
2017-12-24T04:37:40.110Z,91.74
2017-12-24T04:38:20.687Z,91.74
2017-12-24T04:39:01.222Z,91.84
2017-12-24T04:39:41.781Z,91.84
2017-12-24T04:40:22.330Z,91.55
2017-12-24T04:41:02.896Z,91.46
2017-12-24T04:41:43.446Z,91.7
2017-12-24T04:42:23.988Z,92.36
2017-12-24T04:43:04.533Z,92.36
2017-12-24T04:43:45.100Z,92.27
2017-12-24T04:44:25.661Z,92.65
2017-12-24T04:45:06.291Z,92.94
2017-12-24T04:45:46.835Z,93.17
2017-12-24T04:46:27.379Z,92.5
2017-12-24T04:47:07.941Z,92.32
2017-12-24T04:47:48.476Z,92.79
2017-12-24T04:48:29.005Z,91.94
2017-12-24T04:49:09.552Z,92.22
2017-12-24T04:49:50.086Z,91.94
2017-12-24T04:50:30.644Z,91.65
2017-12-24T04:51:11.155Z,91.74
2017-12-24T04:51:51.706Z,91.94
2017-12-24T04:52:32.292Z,91.55
2017-12-24T04:53:12.799Z,91.84
2017-12-24T04:53:53.331Z,91.74
2017-12-24T04:54:33.882Z,91.94
2017-12-24T04:55:14.432Z,92.03
2017-12-24T04:55:54.946Z,91.55
2017-12-24T04:56:35.518Z,91.74
2017-12-24T04:57:16.070Z,91.94
2017-12-24T04:57:56.600Z,91.74
2017-12-24T04:58:37.167Z,92.13
2017-12-24T04:59:17.703Z,91.84
2017-12-24T04:59:58.255Z,91.84
2017-12-24T05:00:38.794Z,92.03
2017-12-24T05:01:19.367Z,92.13
2017-12-24T05:01:59.872Z,92.03
2017-12-24T05:02:40.428Z,92.03
2017-12-24T05:03:20.990Z,92.79
2017-12-24T05:04:01.502Z,92.03
2017-12-24T05:04:42.051Z,91.94
2017-12-24T05:05:22.588Z,91.84
2017-12-24T05:06:03.133Z,92.13
2017-12-24T05:06:43.709Z,92.13
2017-12-24T05:07:24.232Z,92.22
2017-12-24T05:08:04.750Z,91.94
2017-12-24T05:08:45.270Z,91.55
2017-12-24T05:09:25.804Z,91.74
2017-12-24T05:10:06.394Z,91.65
2017-12-24T05:10:46.903Z,91.65
2017-12-24T05:11:27.436Z,91.27
2017-12-24T05:12:07.934Z,91.46
2017-12-24T05:12:48.504Z,91.55
2017-12-24T05:13:29.041Z,90.7
2017-12-24T05:14:09.660Z,91.17
2017-12-24T05:14:50.174Z,90.89
2017-12-24T05:15:30.716Z,90.79
2017-12-24T05:16:11.284Z,90.79
2017-12-24T05:16:51.932Z,90.79
2017-12-24T05:17:32.439Z,91.08
2017-12-24T05:18:12.960Z,91.08
2017-12-24T05:18:53.507Z,90.5
2017-12-24T05:19:34.060Z,90.79
2017-12-24T05:20:14.609Z,90.89
2017-12-24T05:20:55.146Z,90.79
2017-12-24T05:21:35.706Z,90.89
2017-12-24T05:22:16.243Z,91.08
2017-12-24T05:22:56.787Z,90.7
2017-12-24T05:23:37.316Z,90.5
2017-12-24T05:24:17.879Z,90.41
2017-12-24T05:24:58.431Z,90.79
2017-12-24T05:25:38.988Z,91.46
2017-12-24T05:26:19.588Z,91.27
2017-12-24T05:27:00.152Z,91.46
2017-12-24T05:27:40.690Z,90.79
2017-12-24T05:28:21.231Z,91.27
2017-12-24T05:29:01.788Z,91.27
2017-12-24T05:29:42.310Z,91.36
2017-12-24T05:30:22.842Z,91.36
2017-12-24T05:31:03.390Z,90.5
2017-12-24T05:31:43.955Z,90.6
2017-12-24T05:32:24.490Z,90.7
2017-12-24T05:33:05.046Z,90.79
2017-12-24T05:33:45.563Z,91.17
2017-12-24T05:34:26.100Z,90.89
2017-12-24T05:35:06.637Z,90.6
2017-12-24T05:35:47.204Z,91.46
2017-12-24T05:36:27.736Z,91.65
2017-12-24T05:37:08.329Z,91.27
2017-12-24T05:37:48.852Z,91.46
2017-12-24T05:38:29.386Z,90.89
2017-12-24T05:39:09.915Z,90.6
2017-12-24T05:39:50.475Z,91.36
2017-12-24T05:40:30.993Z,91.65
2017-12-24T05:41:11.513Z,91.7
2017-12-24T05:41:52.066Z,91.74
2017-12-24T05:42:32.591Z,91.65
2017-12-24T05:43:13.172Z,91.65
2017-12-24T05:43:53.668Z,91.27
2017-12-24T05:44:34.212Z,90.6
2017-12-24T05:45:14.748Z,90.6
2017-12-24T05:45:55.329Z,90.6
2017-12-24T05:46:35.852Z,90.79
2017-12-24T05:47:16.430Z,90.98
2017-12-24T05:47:56.998Z,90.89
2017-12-24T05:48:37.527Z,90.98
2017-12-24T05:49:18.143Z,90.56
2017-12-24T05:49:59.294Z,91.36
2017-12-24T05:50:39.823Z,91.17
2017-12-24T05:51:20.368Z,91.36
2017-12-24T05:52:00.906Z,91.41
2017-12-24T05:52:41.437Z,92.08
2017-12-24T05:53:21.984Z,92.22
2017-12-24T05:54:02.535Z,91.79
2017-12-24T05:54:43.073Z,91.84
2017-12-24T05:55:23.600Z,91.74
2017-12-24T05:56:04.145Z,91.36
2017-12-24T05:56:44.684Z,91.46
2017-12-24T05:57:25.236Z,91.36
2017-12-24T05:58:05.776Z,91.94
2017-12-24T05:58:46.295Z,92.03
2017-12-24T05:59:26.830Z,91.74
2017-12-24T06:00:07.377Z,91.94
2017-12-24T06:00:47.930Z,91.74
2017-12-24T06:01:28.491Z,91.65
2017-12-24T06:02:09.034Z,91.55
2017-12-24T06:02:49.589Z,92.03
2017-12-24T06:03:30.150Z,91.84
2017-12-24T06:04:10.692Z,91.84
2017-12-24T06:04:51.225Z,91.99
2017-12-24T06:05:31.786Z,91.65
2017-12-24T06:06:12.308Z,91.84
2017-12-24T06:06:52.862Z,91.74
2017-12-24T06:07:33.436Z,91.74
2017-12-24T06:08:13.964Z,91.74
2017-12-24T06:08:54.519Z,91.27
2017-12-24T06:09:35.065Z,91.36
2017-12-24T06:10:15.595Z,91.55
2017-12-24T06:10:56.138Z,91.17
2017-12-24T06:11:36.703Z,91.13
2017-12-24T06:12:17.274Z,91.65
2017-12-24T06:12:57.817Z,91.79
2017-12-24T06:13:38.335Z,91.46
2017-12-24T06:14:18.875Z,91.46
2017-12-24T06:14:59.430Z,91.55
2017-12-24T06:15:39.957Z,92.03
2017-12-24T06:16:20.504Z,91.74
2017-12-24T06:17:01.026Z,91.36
2017-12-24T06:17:41.541Z,91.31
2017-12-24T06:18:22.112Z,91.27
2017-12-24T06:19:02.671Z,91.74
2017-12-24T06:19:43.217Z,91.41
2017-12-24T06:20:23.767Z,91.99
2017-12-24T06:21:04.326Z,91.89
2017-12-24T06:21:45.644Z,91.7
2017-12-24T06:22:25.423Z,91.55
2017-12-24T06:23:05.938Z,91.31
2017-12-24T06:23:46.474Z,91.22
2017-12-24T06:24:27.020Z,91.41
2017-12-24T06:25:07.518Z,91.22
2017-12-24T06:25:48.067Z,91.13
2017-12-24T06:26:28.601Z,91.27
2017-12-24T06:27:09.143Z,91.89
2017-12-24T06:27:49.681Z,91.17
2017-12-24T06:28:30.206Z,90.6
2017-12-24T06:29:10.743Z,90.79
2017-12-24T06:29:51.316Z,90.79
2017-12-24T06:30:31.872Z,90.98
2017-12-24T06:31:12.455Z,90.7
2017-12-24T06:31:52.950Z,90.79
2017-12-24T06:32:33.490Z,90.75
2017-12-24T06:33:14.046Z,90.84
2017-12-24T06:33:54.551Z,91.13
2017-12-24T06:34:35.126Z,90.75
2017-12-24T06:35:15.678Z,90.65
2017-12-24T06:35:56.225Z,91.03
2017-12-24T06:36:36.770Z,91.79
2017-12-24T06:37:17.332Z,91.13
2017-12-24T06:37:57.881Z,91.13
2017-12-24T06:38:38.385Z,91.22
2017-12-24T06:39:18.928Z,91.13
2017-12-24T06:39:59.470Z,91.22
2017-12-24T06:40:39.984Z,91.6
2017-12-24T06:41:20.538Z,91.89
2017-12-24T06:42:01.099Z,91.79
2017-12-24T06:42:41.647Z,91.6
2017-12-24T06:43:22.172Z,91.7
2017-12-24T06:44:02.763Z,91.51
2017-12-24T06:44:43.293Z,91.7
2017-12-24T06:45:23.850Z,91.03
2017-12-24T06:46:04.395Z,91.31
2017-12-24T06:46:44.920Z,91.31
2017-12-24T06:47:25.459Z,90.65
2017-12-24T06:48:06.008Z,90.84
2017-12-24T06:48:46.558Z,90.65
2017-12-24T06:49:27.118Z,90.94
2017-12-24T06:50:07.758Z,90.94
2017-12-24T06:50:48.321Z,90.98
2017-12-24T06:51:28.851Z,90.84
2017-12-24T06:52:09.427Z,90.89
2017-12-24T06:52:49.936Z,90.75
2017-12-24T06:53:30.517Z,90.89
2017-12-24T06:54:11.030Z,90.6
2017-12-24T06:54:51.577Z,90.79
2017-12-24T06:55:32.128Z,90.27
2017-12-24T06:56:12.676Z,90.79
2017-12-24T06:56:53.201Z,90.31
2017-12-24T06:57:33.739Z,90.22
2017-12-24T06:58:14.270Z,90.22
2017-12-24T06:58:54.854Z,90.08
2017-12-24T06:59:35.430Z,90.36
2017-12-24T07:00:15.974Z,90.79
2017-12-24T07:00:56.493Z,90.12
2017-12-24T07:01:37.042Z,90.03
2017-12-24T07:02:17.594Z,90.41
2017-12-24T07:02:58.136Z,89.94
2017-12-24T07:03:38.682Z,89.94
2017-12-24T07:04:19.211Z,89.84
2017-12-24T07:04:59.748Z,90.03
2017-12-24T07:05:40.302Z,89.94
2017-12-24T07:06:20.870Z,89.94
2017-12-24T07:07:01.437Z,89.84
2017-12-24T07:07:41.972Z,89.84
2017-12-24T07:08:22.525Z,89.46
2017-12-24T07:09:03.086Z,89.46
2017-12-24T07:09:43.620Z,89.65
2017-12-24T07:10:24.176Z,89.75
2017-12-24T07:11:04.747Z,89.89
2017-12-24T07:11:45.268Z,89.51
2017-12-24T07:12:25.831Z,89.84
2017-12-24T07:13:06.334Z,90.22
2017-12-24T07:13:46.868Z,89.36
2017-12-24T07:14:27.406Z,89.75
2017-12-24T07:15:07.950Z,89.84
2017-12-24T07:15:48.487Z,89.94
2017-12-24T07:16:29.033Z,89.65
2017-12-24T07:17:09.592Z,89.17
2017-12-24T07:17:50.164Z,89.22
2017-12-24T07:18:30.731Z,88.89
2017-12-24T07:19:11.226Z,89.46
2017-12-24T07:19:51.746Z,88.98
2017-12-24T07:20:32.332Z,89.07
2017-12-24T07:21:12.840Z,89.07
2017-12-24T07:21:53.403Z,89.07
2017-12-24T07:22:33.899Z,88.51
2017-12-24T07:23:14.426Z,88.51
2017-12-24T07:23:55.011Z,88.7
2017-12-24T07:24:35.548Z,88.7
2017-12-24T07:25:16.107Z,88.6
2017-12-24T07:25:56.637Z,89.17
2017-12-24T07:26:37.173Z,88.7
2017-12-24T07:27:17.694Z,88.6
2017-12-24T07:27:58.231Z,88.12
2017-12-24T07:28:38.768Z,88.22
2017-12-24T07:29:19.309Z,88.51
2017-12-24T07:29:59.854Z,88.6
2017-12-24T07:30:40.430Z,88.22
2017-12-24T07:31:20.953Z,87.93
2017-12-24T07:32:01.498Z,88.03
2017-12-24T07:32:42.038Z,88.12
2017-12-24T07:33:23.164Z,88.22
2017-12-24T07:34:03.112Z,88.22
2017-12-24T07:34:43.653Z,88.31
2017-12-24T07:35:24.203Z,88.31
2017-12-24T07:36:04.726Z,88.31
2017-12-24T07:36:46.166Z,87.84
2017-12-24T07:37:25.814Z,88.22
2017-12-24T07:38:06.364Z,88.12
2017-12-24T07:38:46.890Z,88.31
2017-12-24T07:39:27.442Z,88.6
2017-12-24T07:40:07.932Z,88.7
2017-12-24T07:40:48.500Z,88.22
2017-12-24T07:41:29.055Z,88.7
2017-12-24T07:42:09.628Z,88.89
2017-12-24T07:42:50.197Z,88.89
2017-12-24T07:43:30.733Z,88.6
2017-12-24T07:44:11.294Z,88.98
2017-12-24T07:44:51.820Z,88.75
2017-12-24T07:45:32.382Z,88.98
2017-12-24T07:46:12.919Z,88.41
2017-12-24T07:46:53.463Z,89.13
2017-12-24T07:47:34.041Z,89.22
2017-12-24T07:48:14.627Z,89.17
2017-12-24T07:48:55.181Z,89.41
2017-12-24T07:49:36.169Z,89.22
2017-12-24T07:50:16.762Z,89.61
2017-12-24T07:50:57.303Z,90.08
2017-12-24T07:51:37.837Z,89.51
2017-12-24T07:52:18.370Z,89.41
2017-12-24T07:52:58.906Z,89.79
2017-12-24T07:53:39.447Z,89.98
2017-12-24T07:54:19.967Z,90.08
2017-12-24T07:55:00.515Z,89.79
2017-12-24T07:55:41.052Z,89.51
2017-12-24T07:56:21.609Z,90.56
2017-12-24T07:57:02.157Z,90.56
2017-12-24T07:57:42.685Z,90.65
2017-12-24T07:58:23.224Z,90.65
2017-12-24T07:59:03.763Z,90.36
2017-12-24T07:59:44.306Z,90.75
2017-12-24T08:00:24.904Z,90.94
2017-12-24T08:01:05.375Z,90.56
2017-12-24T08:01:45.925Z,90.75
2017-12-24T08:02:26.510Z,89.98
2017-12-24T08:03:07.051Z,90.27
2017-12-24T08:03:47.600Z,89.51
2017-12-24T08:04:28.143Z,89.51
2017-12-24T08:05:08.719Z,90.36
2017-12-24T08:05:49.235Z,90.08
2017-12-24T08:06:29.792Z,90.36
2017-12-24T08:07:10.312Z,89.98
2017-12-24T08:07:50.940Z,89.89
2017-12-24T08:08:31.503Z,89.79
2017-12-24T08:09:12.042Z,89.94
2017-12-24T08:09:52.615Z,89.75
2017-12-24T08:10:33.154Z,89.75
2017-12-24T08:11:13.640Z,89.17
2017-12-24T08:11:54.163Z,88.89
2017-12-24T08:12:34.757Z,89.07
2017-12-24T08:13:15.307Z,89.13
2017-12-24T08:13:55.855Z,89.07
2017-12-24T08:14:36.387Z,89.26
2017-12-24T08:15:16.950Z,89.17
2017-12-24T08:15:57.510Z,89.17
2017-12-24T08:16:38.068Z,89.22
2017-12-24T08:17:18.610Z,89.17
2017-12-24T08:17:59.148Z,89.26
2017-12-24T08:18:39.716Z,88.98
2017-12-24T08:19:20.219Z,89.26
2017-12-24T08:20:00.777Z,89.17
2017-12-24T08:20:41.340Z,88.84
2017-12-24T08:21:21.857Z,89.55
2017-12-24T08:22:02.411Z,89.55
2017-12-24T08:22:42.967Z,88.89
2017-12-24T08:23:23.492Z,89.26
2017-12-24T08:24:04.071Z,89.17
2017-12-24T08:24:44.610Z,89.17
2017-12-24T08:25:25.149Z,89.26
2017-12-24T08:26:05.688Z,89.26
2017-12-24T08:26:46.230Z,89.41
2017-12-24T08:27:26.733Z,89.94
2017-12-24T08:28:07.273Z,89.55
2017-12-24T08:28:47.840Z,89.7
2017-12-24T08:29:28.388Z,90.08
2017-12-24T08:30:08.970Z,90.12
2017-12-24T08:30:49.489Z,89.46
2017-12-24T08:31:30.023Z,90.03
2017-12-24T08:32:10.576Z,89.65
2017-12-24T08:32:51.137Z,89.17
2017-12-24T08:33:31.651Z,89.26
2017-12-24T08:34:12.206Z,89.84
2017-12-24T08:34:52.752Z,89.17
2017-12-24T08:35:33.320Z,89.26
2017-12-24T08:36:13.848Z,89.17
2017-12-24T08:36:54.381Z,89.26
2017-12-24T08:37:34.954Z,89.36
2017-12-24T08:38:15.503Z,89.17
2017-12-24T08:38:56.044Z,89.07
2017-12-24T08:39:36.595Z,89.46
2017-12-24T08:40:17.135Z,89.36
2017-12-24T08:40:57.668Z,89.26
2017-12-24T08:41:38.230Z,89.17
2017-12-24T08:42:18.757Z,89.07
2017-12-24T08:42:59.333Z,89.26
2017-12-24T08:43:39.824Z,89.26